sensor_id;sensor_type;location;lat;lon;timestamp;P1;durP1;ratioP1;P2;durP2;ratioP2
6679;SDS011;3376;42.664;23.346;2023-08-31T00:02:20;3.50;;;2.10;;
6679;SDS011;3376;42.664;23.346;2023-08-31T00:04:47;4.97;;;2.53;;
6679;SDS011;3376;42.664;23.346;2023-08-31T00:07:13;5.67;;;2.37;;
6679;SDS011;3376;42.664;23.346;2023-08-31T00:09:41;2.37;;;2.27;;
6679;SDS011;3376;42.664;23.346;2023-08-31T00:12:08;3.00;;;2.23;;
6679;SDS011;3376;42.664;23.346;2023-08-31T00:14:34;2.13;;;1.93;;
6679;SDS011;3376;42.664;23.346;2023-08-31T00:17:04;2.53;;;2.33;;
6679;SDS011;3376;42.664;23.346;2023-08-31T00:19:30;3.10;;;2.43;;
6679;SDS011;3376;42.664;23.346;2023-08-31T00:21:57;2.43;;;2.00;;
6679;SDS011;3376;42.664;23.346;2023-08-31T00:24:24;3.17;;;2.13;;
6679;SDS011;3376;42.664;23.346;2023-08-31T00:26:55;2.57;;;2.07;;
6679;SDS011;3376;42.664;23.346;2023-08-31T00:29:21;2.50;;;2.30;;
6679;SDS011;3376;42.664;23.346;2023-08-31T00:31:48;4.50;;;2.10;;
6679;SDS011;3376;42.664;23.346;2023-08-31T00:34:17;2.77;;;2.37;;
6679;SDS011;3376;42.664;23.346;2023-08-31T00:36:44;2.43;;;2.30;;
6679;SDS011;3376;42.664;23.346;2023-08-31T00:39:11;1.63;;;1.53;;
6679;SDS011;3376;42.664;23.346;2023-08-31T00:41:38;5.37;;;1.97;;
6679;SDS011;3376;42.664;23.346;2023-08-31T00:44:05;3.93;;;2.23;;
6679;SDS011;3376;42.664;23.346;2023-08-31T00:46:32;2.13;;;1.80;;
6679;SDS011;3376;42.664;23.346;2023-08-31T00:49:01;2.30;;;2.10;;
6679;SDS011;3376;42.664;23.346;2023-08-31T00:51:30;2.20;;;2.00;;
6679;SDS011;3376;42.664;23.346;2023-08-31T00:53:57;3.20;;;2.23;;
6679;SDS011;3376;42.664;23.346;2023-08-31T00:56:24;2.40;;;2.30;;
6679;SDS011;3376;42.664;23.346;2023-08-31T00:58:52;3.53;;;2.40;;
6679;SDS011;3376;42.664;23.346;2023-08-31T01:01:21;2.43;;;2.23;;
6679;SDS011;3376;42.664;23.346;2023-08-31T01:03:57;2.80;;;2.03;;
6679;SDS011;3376;42.664;23.346;2023-08-31T01:06:34;2.03;;;1.93;;
6679;SDS011;3376;42.664;23.346;2023-08-31T01:09:14;2.20;;;2.00;;
6679;SDS011;3376;42.664;23.346;2023-08-31T01:11:51;2.77;;;2.03;;
6679;SDS011;3376;42.664;23.346;2023-08-31T01:14:25;3.90;;;1.87;;
6679;SDS011;3376;42.664;23.346;2023-08-31T01:16:58;2.37;;;2.17;;
6679;SDS011;3376;42.664;23.346;2023-08-31T01:19:30;2.73;;;1.80;;
6679;SDS011;3376;42.664;23.346;2023-08-31T01:22:11;3.83;;;2.17;;
6679;SDS011;3376;42.664;23.346;2023-08-31T01:24:44;1.90;;;1.80;;
6679;SDS011;3376;42.664;23.346;2023-08-31T01:27:12;2.73;;;2.03;;
6679;SDS011;3376;42.664;23.346;2023-08-31T01:29:39;3.00;;;2.10;;
6679;SDS011;3376;42.664;23.346;2023-08-31T01:32:06;2.43;;;1.80;;
6679;SDS011;3376;42.664;23.346;2023-08-31T01:34:33;2.00;;;1.90;;
6679;SDS011;3376;42.664;23.346;2023-08-31T01:37:03;1.97;;;1.80;;
6679;SDS011;3376;42.664;23.346;2023-08-31T01:39:37;2.10;;;2.00;;
6679;SDS011;3376;42.664;23.346;2023-08-31T01:42:11;1.70;;;1.60;;
6679;SDS011;3376;42.664;23.346;2023-08-31T01:44:39;2.03;;;1.93;;
6679;SDS011;3376;42.664;23.346;2023-08-31T01:47:08;2.77;;;2.30;;
6679;SDS011;3376;42.664;23.346;2023-08-31T01:49:36;2.77;;;2.00;;
6679;SDS011;3376;42.664;23.346;2023-08-31T01:52:04;2.50;;;2.40;;
6679;SDS011;3376;42.664;23.346;2023-08-31T01:54:31;2.03;;;1.93;;
6679;SDS011;3376;42.664;23.346;2023-08-31T01:56:58;3.87;;;1.97;;
6679;SDS011;3376;42.664;23.346;2023-08-31T01:59:27;2.37;;;2.17;;
6679;SDS011;3376;42.664;23.346;2023-08-31T02:01:53;2.63;;;2.10;;
6679;SDS011;3376;42.664;23.346;2023-08-31T02:04:20;2.50;;;2.30;;
6679;SDS011;3376;42.664;23.346;2023-08-31T02:06:47;2.30;;;2.20;;
6679;SDS011;3376;42.664;23.346;2023-08-31T02:09:14;3.00;;;1.87;;
6679;SDS011;3376;42.664;23.346;2023-08-31T02:11:41;3.90;;;2.10;;
6679;SDS011;3376;42.664;23.346;2023-08-31T02:14:08;2.93;;;2.20;;
6679;SDS011;3376;42.664;23.346;2023-08-31T02:16:36;2.43;;;2.33;;
6679;SDS011;3376;42.664;23.346;2023-08-31T02:19:02;3.57;;;2.13;;
6679;SDS011;3376;42.664;23.346;2023-08-31T02:21:29;2.57;;;1.97;;
6679;SDS011;3376;42.664;23.346;2023-08-31T02:23:56;3.87;;;2.50;;
6679;SDS011;3376;42.664;23.346;2023-08-31T02:26:23;2.87;;;2.33;;
6679;SDS011;3376;42.664;23.346;2023-08-31T02:28:49;3.87;;;2.87;;
6679;SDS011;3376;42.664;23.346;2023-08-31T02:31:16;2.43;;;2.23;;
6679;SDS011;3376;42.664;23.346;2023-08-31T02:33:45;2.00;;;1.90;;
6679;SDS011;3376;42.664;23.346;2023-08-31T02:36:12;3.67;;;2.73;;
6679;SDS011;3376;42.664;23.346;2023-08-31T02:38:39;2.27;;;2.03;;
6679;SDS011;3376;42.664;23.346;2023-08-31T02:41:05;2.37;;;2.20;;
6679;SDS011;3376;42.664;23.346;2023-08-31T02:43:32;5.17;;;2.17;;
6679;SDS011;3376;42.664;23.346;2023-08-31T02:45:59;2.83;;;2.43;;
6679;SDS011;3376;42.664;23.346;2023-08-31T02:48:27;2.40;;;2.10;;
6679;SDS011;3376;42.664;23.346;2023-08-31T02:50:56;2.73;;;2.50;;
6679;SDS011;3376;42.664;23.346;2023-08-31T02:53:25;2.77;;;2.13;;
6679;SDS011;3376;42.664;23.346;2023-08-31T02:55:52;3.27;;;2.27;;
6679;SDS011;3376;42.664;23.346;2023-08-31T02:58:19;2.10;;;2.00;;
6679;SDS011;3376;42.664;23.346;2023-08-31T03:00:46;3.30;;;2.20;;
6679;SDS011;3376;42.664;23.346;2023-08-31T03:03:13;3.60;;;1.90;;
6679;SDS011;3376;42.664;23.346;2023-08-31T03:05:40;3.17;;;1.93;;
6679;SDS011;3376;42.664;23.346;2023-08-31T03:08:09;2.43;;;2.23;;
6679;SDS011;3376;42.664;23.346;2023-08-31T03:10:35;2.73;;;2.30;;
6679;SDS011;3376;42.664;23.346;2023-08-31T03:13:03;2.70;;;2.47;;
6679;SDS011;3376;42.664;23.346;2023-08-31T03:15:31;2.97;;;2.63;;
6679;SDS011;3376;42.664;23.346;2023-08-31T03:17:59;4.70;;;2.53;;
6679;SDS011;3376;42.664;23.346;2023-08-31T03:20:26;2.50;;;2.30;;
6679;SDS011;3376;42.664;23.346;2023-08-31T03:22:52;2.20;;;2.00;;
6679;SDS011;3376;42.664;23.346;2023-08-31T03:25:20;2.90;;;2.70;;
6679;SDS011;3376;42.664;23.346;2023-08-31T03:27:47;2.53;;;2.33;;
6679;SDS011;3376;42.664;23.346;2023-08-31T03:30:14;3.03;;;2.60;;
6679;SDS011;3376;42.664;23.346;2023-08-31T03:32:41;2.33;;;2.20;;
6679;SDS011;3376;42.664;23.346;2023-08-31T03:35:08;4.67;;;2.07;;
6679;SDS011;3376;42.664;23.346;2023-08-31T03:37:35;4.57;;;2.70;;
6679;SDS011;3376;42.664;23.346;2023-08-31T03:40:02;3.63;;;2.37;;
6679;SDS011;3376;42.664;23.346;2023-08-31T03:42:33;2.37;;;2.20;;
6679;SDS011;3376;42.664;23.346;2023-08-31T03:45:00;4.30;;;2.90;;
6679;SDS011;3376;42.664;23.346;2023-08-31T03:47:28;3.33;;;2.47;;
6679;SDS011;3376;42.664;23.346;2023-08-31T03:49:55;5.07;;;2.60;;
6679;SDS011;3376;42.664;23.346;2023-08-31T03:52:21;2.67;;;2.33;;
6679;SDS011;3376;42.664;23.346;2023-08-31T03:54:49;3.33;;;2.37;;
6679;SDS011;3376;42.664;23.346;2023-08-31T03:57:16;3.07;;;2.50;;
6679;SDS011;3376;42.664;23.346;2023-08-31T03:59:44;5.63;;;2.93;;
6679;SDS011;3376;42.664;23.346;2023-08-31T04:02:10;3.57;;;3.37;;
6679;SDS011;3376;42.664;23.346;2023-08-31T04:04:37;4.33;;;3.10;;
6679;SDS011;3376;42.664;23.346;2023-08-31T04:07:04;3.33;;;3.13;;
6679;SDS011;3376;42.664;23.346;2023-08-31T04:09:31;3.43;;;2.80;;
6679;SDS011;3376;42.664;23.346;2023-08-31T04:11:58;4.40;;;2.93;;
6679;SDS011;3376;42.664;23.346;2023-08-31T04:14:25;2.90;;;2.70;;
6679;SDS011;3376;42.664;23.346;2023-08-31T04:16:53;3.60;;;3.30;;
6679;SDS011;3376;42.664;23.346;2023-08-31T04:19:20;3.10;;;2.57;;
6679;SDS011;3376;42.664;23.346;2023-08-31T04:21:47;4.43;;;2.97;;
6679;SDS011;3376;42.664;23.346;2023-08-31T04:24:14;4.73;;;3.53;;
6679;SDS011;3376;42.664;23.346;2023-08-31T04:26:40;4.00;;;2.63;;
6679;SDS011;3376;42.664;23.346;2023-08-31T04:29:08;3.30;;;3.10;;
6679;SDS011;3376;42.664;23.346;2023-08-31T04:31:35;3.07;;;2.87;;
6679;SDS011;3376;42.664;23.346;2023-08-31T04:34:04;3.80;;;3.03;;
6679;SDS011;3376;42.664;23.346;2023-08-31T04:36:32;4.00;;;3.23;;
6679;SDS011;3376;42.664;23.346;2023-08-31T04:38:59;6.80;;;3.20;;
6679;SDS011;3376;42.664;23.346;2023-08-31T04:41:26;3.80;;;3.20;;
6679;SDS011;3376;42.664;23.346;2023-08-31T04:43:52;4.30;;;3.07;;
6679;SDS011;3376;42.664;23.346;2023-08-31T04:46:19;4.07;;;3.03;;
6679;SDS011;3376;42.664;23.346;2023-08-31T04:48:46;5.17;;;3.30;;
6679;SDS011;3376;42.664;23.346;2023-08-31T04:51:28;8.20;;;3.23;;
6679;SDS011;3376;42.664;23.346;2023-08-31T04:53:55;4.63;;;2.87;;
6679;SDS011;3376;42.664;23.346;2023-08-31T04:56:22;3.80;;;3.40;;
6679;SDS011;3376;42.664;23.346;2023-08-31T04:58:49;2.87;;;2.63;;
6679;SDS011;3376;42.664;23.346;2023-08-31T05:01:15;5.20;;;4.20;;
6679;SDS011;3376;42.664;23.346;2023-08-31T05:03:42;4.37;;;4.03;;
6679;SDS011;3376;42.664;23.346;2023-08-31T05:06:09;7.80;;;5.43;;
6679;SDS011;3376;42.664;23.346;2023-08-31T05:08:37;7.83;;;5.00;;
6679;SDS011;3376;42.664;23.346;2023-08-31T05:11:04;4.87;;;4.33;;
6679;SDS011;3376;42.664;23.346;2023-08-31T05:13:30;5.60;;;3.43;;
6679;SDS011;3376;42.664;23.346;2023-08-31T05:15:57;4.50;;;3.57;;
6679;SDS011;3376;42.664;23.346;2023-08-31T05:18:24;7.93;;;3.30;;
6679;SDS011;3376;42.664;23.346;2023-08-31T05:20:51;5.30;;;3.03;;
6679;SDS011;3376;42.664;23.346;2023-08-31T05:23:18;7.60;;;3.20;;
6679;SDS011;3376;42.664;23.346;2023-08-31T05:25:46;8.77;;;3.57;;
6679;SDS011;3376;42.664;23.346;2023-08-31T05:28:13;4.63;;;3.53;;
6679;SDS011;3376;42.664;23.346;2023-08-31T05:30:47;6.43;;;3.17;;
6679;SDS011;3376;42.664;23.346;2023-08-31T05:33:14;5.37;;;3.43;;
6679;SDS011;3376;42.664;23.346;2023-08-31T05:35:41;3.97;;;3.20;;
6679;SDS011;3376;42.664;23.346;2023-08-31T05:38:10;3.97;;;2.97;;
6679;SDS011;3376;42.664;23.346;2023-08-31T05:40:37;5.17;;;3.10;;
6679;SDS011;3376;42.664;23.346;2023-08-31T05:43:05;5.53;;;2.90;;
6679;SDS011;3376;42.664;23.346;2023-08-31T05:45:32;2.30;;;2.20;;
6679;SDS011;3376;42.664;23.346;2023-08-31T05:47:59;5.17;;;2.33;;
6679;SDS011;3376;42.664;23.346;2023-08-31T05:50:26;2.17;;;2.00;;
6679;SDS011;3376;42.664;23.346;2023-08-31T05:52:53;2.30;;;2.00;;
6679;SDS011;3376;42.664;23.346;2023-08-31T05:55:20;2.30;;;2.10;;
6679;SDS011;3376;42.664;23.346;2023-08-31T05:57:46;3.27;;;2.97;;
6679;SDS011;3376;42.664;23.346;2023-08-31T06:00:15;3.40;;;2.30;;
6679;SDS011;3376;42.664;23.346;2023-08-31T06:02:43;3.63;;;2.17;;
6679;SDS011;3376;42.664;23.346;2023-08-31T06:05:10;4.70;;;2.00;;
6679;SDS011;3376;42.664;23.346;2023-08-31T06:07:41;5.07;;;2.27;;
6679;SDS011;3376;42.664;23.346;2023-08-31T06:10:08;2.60;;;2.40;;
6679;SDS011;3376;42.664;23.346;2023-08-31T06:12:35;3.93;;;2.20;;
6679;SDS011;3376;42.664;23.346;2023-08-31T06:15:03;4.67;;;2.20;;
6679;SDS011;3376;42.664;23.346;2023-08-31T06:17:31;8.90;;;3.47;;
6679;SDS011;3376;42.664;23.346;2023-08-31T06:20:00;2.60;;;2.40;;
6679;SDS011;3376;42.664;23.346;2023-08-31T06:22:27;3.90;;;2.57;;
6679;SDS011;3376;42.664;23.346;2023-08-31T06:24:53;3.10;;;1.90;;
6679;SDS011;3376;42.664;23.346;2023-08-31T06:27:20;14.17;;;4.93;;
6679;SDS011;3376;42.664;23.346;2023-08-31T06:29:47;3.07;;;2.53;;
6679;SDS011;3376;42.664;23.346;2023-08-31T06:32:14;4.63;;;2.23;;
6679;SDS011;3376;42.664;23.346;2023-08-31T06:34:43;4.83;;;2.00;;
6679;SDS011;3376;42.664;23.346;2023-08-31T06:37:10;4.53;;;3.47;;
6679;SDS011;3376;42.664;23.346;2023-08-31T06:39:37;5.10;;;3.70;;
6679;SDS011;3376;42.664;23.346;2023-08-31T06:42:04;3.95;;;3.10;;
6679;SDS011;3376;42.664;23.346;2023-08-31T06:44:31;3.22;;;2.80;;
6679;SDS011;3376;42.664;23.346;2023-08-31T06:46:58;3.10;;;2.87;;
6679;SDS011;3376;42.664;23.346;2023-08-31T06:49:24;4.78;;;2.65;;
6679;SDS011;3376;42.664;23.346;2023-08-31T06:51:53;3.40;;;3.10;;
6679;SDS011;3376;42.664;23.346;2023-08-31T06:54:20;2.83;;;2.53;;
6679;SDS011;3376;42.664;23.346;2023-08-31T06:56:47;4.22;;;3.30;;
6679;SDS011;3376;42.664;23.346;2023-08-31T06:59:14;4.60;;;3.20;;
6679;SDS011;3376;42.664;23.346;2023-08-31T07:01:40;6.40;;;3.17;;
6679;SDS011;3376;42.664;23.346;2023-08-31T07:04:07;4.40;;;2.85;;
6679;SDS011;3376;42.664;23.346;2023-08-31T07:06:34;4.43;;;2.65;;
6679;SDS011;3376;42.664;23.346;2023-08-31T07:09:03;8.43;;;2.83;;
6679;SDS011;3376;42.664;23.346;2023-08-31T07:11:33;4.85;;;2.83;;
6679;SDS011;3376;42.664;23.346;2023-08-31T07:14:00;5.78;;;3.00;;
6679;SDS011;3376;42.664;23.346;2023-08-31T07:16:26;5.22;;;2.70;;
6679;SDS011;3376;42.664;23.346;2023-08-31T07:18:53;7.20;;;4.13;;
6679;SDS011;3376;42.664;23.346;2023-08-31T07:21:20;4.93;;;4.53;;
6679;SDS011;3376;42.664;23.346;2023-08-31T07:23:47;4.18;;;3.05;;
6679;SDS011;3376;42.664;23.346;2023-08-31T07:26:16;3.17;;;2.70;;
6679;SDS011;3376;42.664;23.346;2023-08-31T07:28:42;5.57;;;2.60;;
6679;SDS011;3376;42.664;23.346;2023-08-31T07:31:09;4.20;;;2.63;;
6679;SDS011;3376;42.664;23.346;2023-08-31T07:33:36;6.13;;;3.50;;
6679;SDS011;3376;42.664;23.346;2023-08-31T07:36:03;2.83;;;2.63;;
6679;SDS011;3376;42.664;23.346;2023-08-31T07:38:31;4.80;;;2.90;;
6679;SDS011;3376;42.664;23.346;2023-08-31T07:40:59;3.03;;;2.83;;
6679;SDS011;3376;42.664;23.346;2023-08-31T07:43:27;7.45;;;2.53;;
6679;SDS011;3376;42.664;23.346;2023-08-31T07:45:54;4.10;;;2.38;;
6679;SDS011;3376;42.664;23.346;2023-08-31T07:48:21;6.22;;;2.95;;
6679;SDS011;3376;42.664;23.346;2023-08-31T07:50:49;6.00;;;2.78;;
6679;SDS011;3376;42.664;23.346;2023-08-31T07:53:16;4.10;;;2.83;;
6679;SDS011;3376;42.664;23.346;2023-08-31T07:55:50;3.75;;;2.40;;
6679;SDS011;3376;42.664;23.346;2023-08-31T07:58:17;5.55;;;2.53;;
6679;SDS011;3376;42.664;23.346;2023-08-31T08:00:45;2.90;;;2.70;;
6679;SDS011;3376;42.664;23.346;2023-08-31T08:03:12;3.53;;;2.35;;
6679;SDS011;3376;42.664;23.346;2023-08-31T08:05:39;3.40;;;2.50;;
6679;SDS011;3376;42.664;23.346;2023-08-31T08:08:06;3.17;;;2.17;;
6679;SDS011;3376;42.664;23.346;2023-08-31T08:10:33;4.82;;;2.33;;
6679;SDS011;3376;42.664;23.346;2023-08-31T08:13:00;5.53;;;2.45;;
6679;SDS011;3376;42.664;23.346;2023-08-31T08:15:26;5.15;;;2.40;;
6679;SDS011;3376;42.664;23.346;2023-08-31T08:17:55;2.30;;;2.10;;
6679;SDS011;3376;42.664;23.346;2023-08-31T08:20:22;3.42;;;3.00;;
6679;SDS011;3376;42.664;23.346;2023-08-31T08:22:49;7.88;;;2.97;;
6679;SDS011;3376;42.664;23.346;2023-08-31T08:25:17;4.45;;;3.60;;
6679;SDS011;3376;42.664;23.346;2023-08-31T08:27:44;4.28;;;3.97;;
6679;SDS011;3376;42.664;23.346;2023-08-31T08:30:11;4.10;;;3.75;;
6679;SDS011;3376;42.664;23.346;2023-08-31T08:32:38;4.65;;;4.05;;
6679;SDS011;3376;42.664;23.346;2023-08-31T08:35:06;4.65;;;4.45;;
6679;SDS011;3376;42.664;23.346;2023-08-31T08:37:33;4.60;;;4.22;;
6679;SDS011;3376;42.664;23.346;2023-08-31T08:40:00;4.70;;;3.70;;
6679;SDS011;3376;42.664;23.346;2023-08-31T08:42:29;3.63;;;3.33;;
6679;SDS011;3376;42.664;23.346;2023-08-31T08:44:56;4.63;;;4.03;;
6679;SDS011;3376;42.664;23.346;2023-08-31T08:47:24;5.00;;;4.60;;
6679;SDS011;3376;42.664;23.346;2023-08-31T08:49:53;4.30;;;4.10;;
6679;SDS011;3376;42.664;23.346;2023-08-31T08:52:22;4.82;;;4.47;;
6679;SDS011;3376;42.664;23.346;2023-08-31T08:54:49;3.92;;;3.72;;
6679;SDS011;3376;42.664;23.346;2023-08-31T08:57:16;4.60;;;4.40;;
6679;SDS011;3376;42.664;23.346;2023-08-31T08:59:43;4.60;;;4.10;;
6679;SDS011;3376;42.664;23.346;2023-08-31T09:02:10;4.82;;;4.20;;
6679;SDS011;3376;42.664;23.346;2023-08-31T09:04:37;4.88;;;4.47;;
6679;SDS011;3376;42.664;23.346;2023-08-31T09:07:04;4.85;;;4.45;;
6679;SDS011;3376;42.664;23.346;2023-08-31T09:09:32;4.05;;;3.85;;
6679;SDS011;3376;42.664;23.346;2023-08-31T09:12:17;4.00;;;3.63;;
6679;SDS011;3376;42.664;23.346;2023-08-31T09:14:56;4.18;;;3.88;;
6679;SDS011;3376;42.664;23.346;2023-08-31T09:17:24;4.00;;;3.80;;
6679;SDS011;3376;42.664;23.346;2023-08-31T09:19:58;4.78;;;4.38;;
6679;SDS011;3376;42.664;23.346;2023-08-31T09:22:25;4.65;;;4.30;;
6679;SDS011;3376;42.664;23.346;2023-08-31T09:24:54;3.95;;;3.75;;
6679;SDS011;3376;42.664;23.346;2023-08-31T09:27:20;5.10;;;4.47;;
6679;SDS011;3376;42.664;23.346;2023-08-31T09:29:48;4.25;;;4.05;;
6679;SDS011;3376;42.664;23.346;2023-08-31T09:32:16;3.35;;;3.25;;
6679;SDS011;3376;42.664;23.346;2023-08-31T09:34:43;4.30;;;4.00;;
6679;SDS011;3376;42.664;23.346;2023-08-31T09:37:10;4.53;;;3.75;;
6679;SDS011;3376;42.664;23.346;2023-08-31T09:39:37;3.90;;;3.58;;
6679;SDS011;3376;42.664;23.346;2023-08-31T09:42:06;4.13;;;3.90;;
6679;SDS011;3376;42.664;23.346;2023-08-31T09:44:33;4.50;;;4.15;;
6679;SDS011;3376;42.664;23.346;2023-08-31T09:47:00;4.30;;;4.10;;
6679;SDS011;3376;42.664;23.346;2023-08-31T09:49:28;4.30;;;3.90;;
6679;SDS011;3376;42.664;23.346;2023-08-31T09:51:55;4.18;;;3.97;;
6679;SDS011;3376;42.664;23.346;2023-08-31T09:54:29;4.45;;;4.00;;
6679;SDS011;3376;42.664;23.346;2023-08-31T09:56:56;4.75;;;4.35;;
6679;SDS011;3376;42.664;23.346;2023-08-31T09:59:27;4.47;;;4.00;;
6679;SDS011;3376;42.664;23.346;2023-08-31T10:01:54;4.88;;;3.95;;
6679;SDS011;3376;42.664;23.346;2023-08-31T10:04:22;4.20;;;3.85;;
6679;SDS011;3376;42.664;23.346;2023-08-31T10:06:49;4.30;;;4.10;;
6679;SDS011;3376;42.664;23.346;2023-08-31T10:09:17;4.00;;;3.70;;
6679;SDS011;3376;42.664;23.346;2023-08-31T10:11:45;4.43;;;4.18;;
6679;SDS011;3376;42.664;23.346;2023-08-31T10:14:12;5.05;;;4.75;;
6679;SDS011;3376;42.664;23.346;2023-08-31T10:16:41;4.95;;;4.68;;
6679;SDS011;3376;42.664;23.346;2023-08-31T10:19:10;4.90;;;4.70;;
6679;SDS011;3376;42.664;23.346;2023-08-31T10:21:37;4.88;;;4.47;;
6679;SDS011;3376;42.664;23.346;2023-08-31T10:24:04;4.35;;;4.10;;
6679;SDS011;3376;42.664;23.346;2023-08-31T10:26:33;4.55;;;4.35;;
6679;SDS011;3376;42.664;23.346;2023-08-31T10:29:00;5.53;;;5.18;;
6679;SDS011;3376;42.664;23.346;2023-08-31T10:31:28;5.68;;;5.03;;
6679;SDS011;3376;42.664;23.346;2023-08-31T10:33:58;4.85;;;4.55;;
6679;SDS011;3376;42.664;23.346;2023-08-31T10:36:36;4.57;;;4.18;;
6679;SDS011;3376;42.664;23.346;2023-08-31T10:39:10;4.68;;;4.25;;
6679;SDS011;3376;42.664;23.346;2023-08-31T10:41:38;4.07;;;3.88;;
6679;SDS011;3376;42.664;23.346;2023-08-31T10:44:18;4.93;;;4.63;;
6679;SDS011;3376;42.664;23.346;2023-08-31T10:46:46;4.40;;;4.20;;
6679;SDS011;3376;42.664;23.346;2023-08-31T10:49:14;4.40;;;4.15;;
6679;SDS011;3376;42.664;23.346;2023-08-31T10:51:43;4.45;;;4.20;;
6679;SDS011;3376;42.664;23.346;2023-08-31T10:54:12;4.30;;;4.10;;
6679;SDS011;3376;42.664;23.346;2023-08-31T10:56:52;4.68;;;4.22;;
6679;SDS011;3376;42.664;23.346;2023-08-31T10:59:18;4.13;;;3.83;;
6679;SDS011;3376;42.664;23.346;2023-08-31T11:01:55;3.83;;;3.63;;
6679;SDS011;3376;42.664;23.346;2023-08-31T11:04:24;4.90;;;4.55;;
6679;SDS011;3376;42.664;23.346;2023-08-31T11:09:41;4.03;;;3.83;;
6679;SDS011;3376;42.664;23.346;2023-08-31T11:12:08;4.03;;;3.83;;
6679;SDS011;3376;42.664;23.346;2023-08-31T11:14:35;4.22;;;3.92;;
6679;SDS011;3376;42.664;23.346;2023-08-31T11:17:03;4.28;;;3.97;;
6679;SDS011;3376;42.664;23.346;2023-08-31T11:19:32;5.93;;;4.28;;
6679;SDS011;3376;42.664;23.346;2023-08-31T11:22:00;4.30;;;4.10;;
6679;SDS011;3376;42.664;23.346;2023-08-31T11:24:28;4.38;;;4.07;;
6679;SDS011;3376;42.664;23.346;2023-08-31T11:26:55;4.60;;;4.40;;
6679;SDS011;3376;42.664;23.346;2023-08-31T11:29:22;6.85;;;4.85;;
6679;SDS011;3376;42.664;23.346;2023-08-31T11:31:48;5.97;;;5.43;;
6679;SDS011;3376;42.664;23.346;2023-08-31T11:34:16;4.88;;;4.47;;
6679;SDS011;3376;42.664;23.346;2023-08-31T11:36:45;4.97;;;3.92;;
6679;SDS011;3376;42.664;23.346;2023-08-31T11:39:13;4.45;;;4.00;;
6679;SDS011;3376;42.664;23.346;2023-08-31T11:41:40;4.47;;;4.10;;
6679;SDS011;3376;42.664;23.346;2023-08-31T11:44:08;3.67;;;3.47;;
6679;SDS011;3376;42.664;23.346;2023-08-31T11:46:36;3.90;;;3.40;;
6679;SDS011;3376;42.664;23.346;2023-08-31T11:49:03;3.53;;;3.22;;
6679;SDS011;3376;42.664;23.346;2023-08-31T11:51:31;3.20;;;3.00;;
6679;SDS011;3376;42.664;23.346;2023-08-31T11:54:00;4.35;;;4.05;;
6679;SDS011;3376;42.664;23.346;2023-08-31T11:56:37;4.18;;;3.53;;
6679;SDS011;3376;42.664;23.346;2023-08-31T11:59:07;3.88;;;3.60;;
6679;SDS011;3376;42.664;23.346;2023-08-31T12:01:37;3.10;;;2.90;;
6679;SDS011;3376;42.664;23.346;2023-08-31T12:04:09;3.35;;;3.05;;
6679;SDS011;3376;42.664;23.346;2023-08-31T12:06:36;3.50;;;3.30;;
6679;SDS011;3376;42.664;23.346;2023-08-31T12:09:05;3.08;;;2.85;;
6679;SDS011;3376;42.664;23.346;2023-08-31T12:11:32;4.00;;;2.92;;
6679;SDS011;3376;42.664;23.346;2023-08-31T12:13:59;4.95;;;3.30;;
6679;SDS011;3376;42.664;23.346;2023-08-31T12:16:31;3.33;;;3.13;;
6679;SDS011;3376;42.664;23.346;2023-08-31T12:18:58;3.10;;;3.00;;
6679;SDS011;3376;42.664;23.346;2023-08-31T12:21:25;3.50;;;3.28;;
6679;SDS011;3376;42.664;23.346;2023-08-31T12:23:52;3.60;;;3.30;;
6679;SDS011;3376;42.664;23.346;2023-08-31T12:26:21;3.40;;;3.22;;
6679;SDS011;3376;42.664;23.346;2023-08-31T12:28:47;3.35;;;3.22;;
6679;SDS011;3376;42.664;23.346;2023-08-31T12:31:14;4.03;;;3.75;;
6679;SDS011;3376;42.664;23.346;2023-08-31T12:33:41;3.28;;;3.08;;
6679;SDS011;3376;42.664;23.346;2023-08-31T12:36:08;3.95;;;3.00;;
6679;SDS011;3376;42.664;23.346;2023-08-31T12:38:35;4.05;;;3.83;;
6679;SDS011;3376;42.664;23.346;2023-08-31T12:41:01;4.30;;;2.83;;
6679;SDS011;3376;42.664;23.346;2023-08-31T12:43:30;4.07;;;3.03;;
6679;SDS011;3376;42.664;23.346;2023-08-31T12:45:57;3.28;;;2.97;;
6679;SDS011;3376;42.664;23.346;2023-08-31T12:48:25;3.35;;;3.10;;
6679;SDS011;3376;42.664;23.346;2023-08-31T12:50:52;3.22;;;3.00;;
6679;SDS011;3376;42.664;23.346;2023-08-31T12:53:20;3.00;;;2.80;;
6679;SDS011;3376;42.664;23.346;2023-08-31T12:55:48;2.78;;;2.58;;
6679;SDS011;3376;42.664;23.346;2023-08-31T12:58:15;2.92;;;2.83;;
6679;SDS011;3376;42.664;23.346;2023-08-31T13:00:44;3.33;;;3.03;;
6679;SDS011;3376;42.664;23.346;2023-08-31T13:03:13;3.65;;;3.35;;
6679;SDS011;3376;42.664;23.346;2023-08-31T13:05:40;2.80;;;2.70;;
6679;SDS011;3376;42.664;23.346;2023-08-31T13:08:07;3.20;;;3.00;;
6679;SDS011;3376;42.664;23.346;2023-08-31T13:10:35;3.22;;;3.13;;
6679;SDS011;3376;42.664;23.346;2023-08-31T13:13:01;3.42;;;2.92;;
6679;SDS011;3376;42.664;23.346;2023-08-31T13:15:30;3.50;;;2.88;;
6679;SDS011;3376;42.664;23.346;2023-08-31T13:17:59;3.13;;;2.92;;
6679;SDS011;3376;42.664;23.346;2023-08-31T13:20:26;3.30;;;3.10;;
6679;SDS011;3376;42.664;23.346;2023-08-31T13:22:53;3.30;;;3.00;;
6679;SDS011;3376;42.664;23.346;2023-08-31T13:25:20;4.22;;;3.10;;
6679;SDS011;3376;42.664;23.346;2023-08-31T13:27:46;2.75;;;2.55;;
6679;SDS011;3376;42.664;23.346;2023-08-31T13:30:13;3.03;;;2.88;;
6679;SDS011;3376;42.664;23.346;2023-08-31T13:32:40;2.88;;;2.75;;
6679;SDS011;3376;42.664;23.346;2023-08-31T13:35:09;3.05;;;2.85;;
6679;SDS011;3376;42.664;23.346;2023-08-31T13:37:36;3.78;;;3.53;;
6679;SDS011;3376;42.664;23.346;2023-08-31T13:40:03;3.88;;;3.55;;
6679;SDS011;3376;42.664;23.346;2023-08-31T13:42:33;3.13;;;2.97;;
6679;SDS011;3376;42.664;23.346;2023-08-31T13:45:03;5.25;;;2.83;;
6679;SDS011;3376;42.664;23.346;2023-08-31T13:47:31;3.13;;;2.92;;
6679;SDS011;3376;42.664;23.346;2023-08-31T13:49:58;3.13;;;2.92;;
6679;SDS011;3376;42.664;23.346;2023-08-31T13:52:26;2.70;;;2.60;;
6679;SDS011;3376;42.664;23.346;2023-08-31T13:54:53;2.85;;;2.65;;
6679;SDS011;3376;42.664;23.346;2023-08-31T13:57:20;2.78;;;2.58;;
6679;SDS011;3376;42.664;23.346;2023-08-31T13:59:47;2.83;;;2.63;;
6679;SDS011;3376;42.664;23.346;2023-08-31T14:02:13;4.40;;;2.80;;
6679;SDS011;3376;42.664;23.346;2023-08-31T14:04:40;2.92;;;2.72;;
6679;SDS011;3376;42.664;23.346;2023-08-31T14:07:08;3.33;;;2.40;;
6679;SDS011;3376;42.664;23.346;2023-08-31T14:09:36;5.20;;;3.22;;
6679;SDS011;3376;42.664;23.346;2023-08-31T14:12:03;2.67;;;2.47;;
6679;SDS011;3376;42.664;23.346;2023-08-31T14:14:30;2.78;;;2.58;;
6679;SDS011;3376;42.664;23.346;2023-08-31T14:16:56;3.35;;;2.53;;
6679;SDS011;3376;42.664;23.346;2023-08-31T14:19:23;3.08;;;2.70;;
6679;SDS011;3376;42.664;23.346;2023-08-31T14:21:50;3.30;;;3.03;;
6679;SDS011;3376;42.664;23.346;2023-08-31T14:24:18;3.75;;;2.47;;
6679;SDS011;3376;42.664;23.346;2023-08-31T14:26:46;3.30;;;3.08;;
6679;SDS011;3376;42.664;23.346;2023-08-31T14:29:12;3.30;;;2.67;;
6679;SDS011;3376;42.664;23.346;2023-08-31T14:31:39;4.97;;;2.90;;
6679;SDS011;3376;42.664;23.346;2023-08-31T14:34:06;3.40;;;3.20;;
6679;SDS011;3376;42.664;23.346;2023-08-31T14:36:33;3.40;;;3.20;;
6679;SDS011;3376;42.664;23.346;2023-08-31T14:38:59;4.17;;;2.83;;
6679;SDS011;3376;42.664;23.346;2023-08-31T14:41:27;4.07;;;2.87;;
6679;SDS011;3376;42.664;23.346;2023-08-31T14:43:55;2.97;;;2.77;;
6679;SDS011;3376;42.664;23.346;2023-08-31T14:46:21;3.47;;;3.17;;
6679;SDS011;3376;42.664;23.346;2023-08-31T14:48:49;3.30;;;3.10;;
6679;SDS011;3376;42.664;23.346;2023-08-31T14:51:16;6.60;;;2.87;;
6679;SDS011;3376;42.664;23.346;2023-08-31T14:53:42;4.97;;;3.43;;
6679;SDS011;3376;42.664;23.346;2023-08-31T14:56:09;3.00;;;2.80;;
6679;SDS011;3376;42.664;23.346;2023-08-31T14:58:36;2.63;;;2.30;;
6679;SDS011;3376;42.664;23.346;2023-08-31T15:01:04;3.03;;;2.70;;
6679;SDS011;3376;42.664;23.346;2023-08-31T15:03:31;3.50;;;2.93;;
6679;SDS011;3376;42.664;23.346;2023-08-31T15:05:58;2.80;;;2.60;;
6679;SDS011;3376;42.664;23.346;2023-08-31T15:08:34;2.90;;;2.70;;